This is the latest recevied weather packets stored in our database for station/object W5HKR. If no packets are shown the sender has not sent any weather packets the latest 10 day(s).
| Time | Temp. | Humidity | Pressure | Rain* | Wind** | Luminosity | Snow |
|---|---|---|---|---|---|---|---|
| 1778210302 | 18.33° C | 91% | 990.6 hPa | 0 mm | - | - | - |
| 1778210002 | 18.33° C | 91% | 990.6 hPa | 0 mm | - | - | - |
| 1778209791 | 18.33° C | 91% | 990.6 hPa | 0 mm | - | - | - |
| 1778209702 | 18.33° C | 91% | 990.6 hPa | 0 mm | - | - | - |
| 1778209401 | 18.33° C | 91% | 990.6 hPa | 0 mm | - | - | - |
| 1778209102 | 18.33° C | 91% | 990.6 hPa | 0 mm | - | - | - |
| 1778208801 | 18.33° C | 91% | 990.6 hPa | 0 mm | - | - | - |
| 1778208712 | 17.78° C | 72% | 986.6 hPa | 0 mm | - | - | - |
| 1778208501 | 18.33° C | 91% | 990.6 hPa | 0 mm | - | - | - |
| 1778208202 | 17.78° C | 71% | 986.8 hPa | 0 mm | - | - | - |
| 1778207902 | 17.78° C | 72% | 986.1 hPa | 0 mm | - | - | - |
| 1778207633 | 18.33° C | 72% | 986.7 hPa | 0 mm | - | - | - |
| 1778207602 | 18.33° C | 72% | 986.3 hPa | 0 mm | - | - | - |
| 1778207301 | 18.33° C | 91% | 990.6 hPa | 0 mm | - | - | - |
| 1778207002 | 18.33° C | 91% | 990.6 hPa | 0 mm | - | - | - |
| 1778206702 | 18.33° C | 91% | 990.6 hPa | 0 mm | - | - | - |
| 1778206551 | 18.33° C | 91% | 990.6 hPa | 0 mm | - | - | - |
| 1778206401 | 18.33° C | 91% | 990.6 hPa | 0 mm | - | - | - |
| 1778206101 | 18.33° C | 70% | 985.8 hPa | 0 mm | - | - | - |
| 1778205801 | 18.33° C | 70% | 986.1 hPa | 0 mm | - | - | - |
| 1778205472 | 18.33° C | 69% | 985.6 hPa | 0 mm | - | - | - |
| 1778205202 | 18.33° C | 91% | 990.6 hPa | 0 mm | - | - | - |
| 1778204901 | 18.89° C | 68% | 984.8 hPa | 0 mm | - | - | - |
| 1778204601 | 18.89° C | 67% | 985.4 hPa | 0 mm | - | - | - |
| 1778204392 | 18.89° C | 67% | 985.8 hPa | 0 mm | - | - | - |
* Rain latest hour (hover to see other rain measurements)
** Current wind speed in m/s (hover to see current wind gust speed)